sensor_id;sensor_type;location;lat;lon;timestamp;temperature;humidity
2623;DHT22;1321;48.690;9.022;2023-03-01T00:01:19;2.20;6.20
2623;DHT22;1321;48.690;9.022;2023-03-01T00:03:48;2.30;6.40
2623;DHT22;1321;48.690;9.022;2023-03-01T00:06:18;2.20;5.10
2623;DHT22;1321;48.690;9.022;2023-03-01T00:08:47;2.30;6.10
2623;DHT22;1321;48.690;9.022;2023-03-01T00:11:17;2.30;6.50
2623;DHT22;1321;48.690;9.022;2023-03-01T00:13:46;2.30;6.40
2623;DHT22;1321;48.690;9.022;2023-03-01T00:16:16;2.20;6.70
2623;DHT22;1321;48.690;9.022;2023-03-01T00:18:45;2.20;6.70
2623;DHT22;1321;48.690;9.022;2023-03-01T00:21:14;2.20;7.10
2623;DHT22;1321;48.690;9.022;2023-03-01T00:23:43;2.20;8.10
2623;DHT22;1321;48.690;9.022;2023-03-01T00:26:13;2.10;7.80
2623;DHT22;1321;48.690;9.022;2023-03-01T00:28:42;2.10;8.60
2623;DHT22;1321;48.690;9.022;2023-03-01T00:31:12;2.10;7.30
2623;DHT22;1321;48.690;9.022;2023-03-01T00:33:41;2.00;7.90
2623;DHT22;1321;48.690;9.022;2023-03-01T00:36:11;2.00;8.40
2623;DHT22;1321;48.690;9.022;2023-03-01T00:38:43;2.00;7.20
2623;DHT22;1321;48.690;9.022;2023-03-01T00:41:14;2.00;13.60
2623;DHT22;1321;48.690;9.022;2023-03-01T00:43:42;2.00;8.20
2623;DHT22;1321;48.690;9.022;2023-03-01T00:46:12;1.90;7.60
2623;DHT22;1321;48.690;9.022;2023-03-01T00:48:41;1.90;8.60
2623;DHT22;1321;48.690;9.022;2023-03-01T00:51:12;1.90;8.80
2623;DHT22;1321;48.690;9.022;2023-03-01T00:53:40;1.90;10.20
2623;DHT22;1321;48.690;9.022;2023-03-01T00:56:12;1.90;9.60
2623;DHT22;1321;48.690;9.022;2023-03-01T00:58:41;1.90;19.70
2623;DHT22;1321;48.690;9.022;2023-03-01T01:01:10;1.80;8.90
2623;DHT22;1321;48.690;9.022;2023-03-01T01:03:45;1.90;9.40
2623;DHT22;1321;48.690;9.022;2023-03-01T01:06:16;1.90;10.10
2623;DHT22;1321;48.690;9.022;2023-03-01T01:08:44;1.80;10.60
2623;DHT22;1321;48.690;9.022;2023-03-01T01:11:14;1.90;9.20
2623;DHT22;1321;48.690;9.022;2023-03-01T01:13:44;1.80;10.70
2623;DHT22;1321;48.690;9.022;2023-03-01T01:16:13;1.80;10.50
2623;DHT22;1321;48.690;9.022;2023-03-01T01:18:41;1.70;10.10
2623;DHT22;1321;48.690;9.022;2023-03-01T01:21:11;1.80;11.30
2623;DHT22;1321;48.690;9.022;2023-03-01T01:23:40;1.80;10.80
2623;DHT22;1321;48.690;9.022;2023-03-01T01:26:10;1.80;11.90
2623;DHT22;1321;48.690;9.022;2023-03-01T01:28:40;1.80;12.40
2623;DHT22;1321;48.690;9.022;2023-03-01T01:31:08;1.80;13.10
2623;DHT22;1321;48.690;9.022;2023-03-01T01:33:37;1.80;13.30
2623;DHT22;1321;48.690;9.022;2023-03-01T01:36:06;1.80;12.60
2623;DHT22;1321;48.690;9.022;2023-03-01T01:38:36;1.70;11.40
2623;DHT22;1321;48.690;9.022;2023-03-01T01:41:05;1.80;13.20
2623;DHT22;1321;48.690;9.022;2023-03-01T01:43:35;1.70;12.30
2623;DHT22;1321;48.690;9.022;2023-03-01T01:46:07;1.70;12.70
2623;DHT22;1321;48.690;9.022;2023-03-01T01:48:46;1.70;12.70
2623;DHT22;1321;48.690;9.022;2023-03-01T01:51:19;1.70;13.70
2623;DHT22;1321;48.690;9.022;2023-03-01T01:53:55;1.70;13.00
2623;DHT22;1321;48.690;9.022;2023-03-01T01:56:26;1.60;13.50
2623;DHT22;1321;48.690;9.022;2023-03-01T01:58:57;1.60;15.00
2623;DHT22;1321;48.690;9.022;2023-03-01T02:01:27;1.60;13.80
2623;DHT22;1321;48.690;9.022;2023-03-01T02:03:55;1.50;14.70
2623;DHT22;1321;48.690;9.022;2023-03-01T02:06:27;1.50;15.70
2623;DHT22;1321;48.690;9.022;2023-03-01T02:08:59;1.60;16.40
2623;DHT22;1321;48.690;9.022;2023-03-01T02:11:29;1.60;16.80
2623;DHT22;1321;48.690;9.022;2023-03-01T02:13:58;1.50;17.00
2623;DHT22;1321;48.690;9.022;2023-03-01T02:16:27;1.50;18.10
2623;DHT22;1321;48.690;9.022;2023-03-01T02:18:57;1.60;18.00
2623;DHT22;1321;48.690;9.022;2023-03-01T02:21:38;1.70;25.40
2623;DHT22;1321;48.690;9.022;2023-03-01T02:24:20;1.70;18.80
2623;DHT22;1321;48.690;9.022;2023-03-01T02:26:55;1.70;19.80
2623;DHT22;1321;48.690;9.022;2023-03-01T02:29:25;1.70;21.30
2623;DHT22;1321;48.690;9.022;2023-03-01T02:31:56;1.80;23.70
2623;DHT22;1321;48.690;9.022;2023-03-01T02:34:25;1.70;23.20
2623;DHT22;1321;48.690;9.022;2023-03-01T02:36:57;1.80;24.10
2623;DHT22;1321;48.690;9.022;2023-03-01T02:39:26;1.80;24.20
2623;DHT22;1321;48.690;9.022;2023-03-01T02:41:56;1.90;25.00
2623;DHT22;1321;48.690;9.022;2023-03-01T02:44:27;1.90;25.30
2623;DHT22;1321;48.690;9.022;2023-03-01T02:46:56;1.90;25.90
2623;DHT22;1321;48.690;9.022;2023-03-01T02:49:29;1.90;26.40
2623;DHT22;1321;48.690;9.022;2023-03-01T02:54:58;2.00;26.20
2623;DHT22;1321;48.690;9.022;2023-03-01T02:57:28;2.00;26.80
2623;DHT22;1321;48.690;9.022;2023-03-01T03:00:03;2.00;27.10
2623;DHT22;1321;48.690;9.022;2023-03-01T03:02:34;1.90;26.70
2623;DHT22;1321;48.690;9.022;2023-03-01T03:05:08;1.90;27.50
2623;DHT22;1321;48.690;9.022;2023-03-01T03:07:39;1.90;28.50
2623;DHT22;1321;48.690;9.022;2023-03-01T03:10:09;2.00;29.20
2623;DHT22;1321;48.690;9.022;2023-03-01T03:12:39;2.00;29.60
2623;DHT22;1321;48.690;9.022;2023-03-01T03:15:10;1.90;29.50
2623;DHT22;1321;48.690;9.022;2023-03-01T03:17:41;2.00;31.10
2623;DHT22;1321;48.690;9.022;2023-03-01T03:20:14;2.00;45.40
2623;DHT22;1321;48.690;9.022;2023-03-01T03:22:46;2.00;31.80
2623;DHT22;1321;48.690;9.022;2023-03-01T03:25:15;2.00;30.80
2623;DHT22;1321;48.690;9.022;2023-03-01T03:27:45;2.10;32.00
2623;DHT22;1321;48.690;9.022;2023-03-01T03:30:17;2.10;32.90
2623;DHT22;1321;48.690;9.022;2023-03-01T03:32:47;2.10;32.60
2623;DHT22;1321;48.690;9.022;2023-03-01T03:35:20;2.00;46.40
2623;DHT22;1321;48.690;9.022;2023-03-01T03:37:48;2.10;32.90
2623;DHT22;1321;48.690;9.022;2023-03-01T03:40:35;2.10;32.90
2623;DHT22;1321;48.690;9.022;2023-03-01T03:43:05;2.20;33.50
2623;DHT22;1321;48.690;9.022;2023-03-01T03:45:36;2.10;33.00
2623;DHT22;1321;48.690;9.022;2023-03-01T03:48:06;2.10;33.30
2623;DHT22;1321;48.690;9.022;2023-03-01T03:50:35;2.10;33.90
2623;DHT22;1321;48.690;9.022;2023-03-01T03:53:05;2.10;34.40
2623;DHT22;1321;48.690;9.022;2023-03-01T03:55:34;2.20;35.50
2623;DHT22;1321;48.690;9.022;2023-03-01T03:58:03;2.20;35.60
2623;DHT22;1321;48.690;9.022;2023-03-01T04:00:36;2.20;35.70
2623;DHT22;1321;48.690;9.022;2023-03-01T04:03:05;2.20;35.40
2623;DHT22;1321;48.690;9.022;2023-03-01T04:05:34;2.20;35.70
2623;DHT22;1321;48.690;9.022;2023-03-01T04:08:03;2.20;35.40
2623;DHT22;1321;48.690;9.022;2023-03-01T04:10:36;2.20;35.10
2623;DHT22;1321;48.690;9.022;2023-03-01T04:13:05;2.20;36.50
2623;DHT22;1321;48.690;9.022;2023-03-01T04:15:35;2.20;35.30
2623;DHT22;1321;48.690;9.022;2023-03-01T04:18:04;2.20;51.40
2623;DHT22;1321;48.690;9.022;2023-03-01T04:20:34;2.20;37.10
2623;DHT22;1321;48.690;9.022;2023-03-01T04:23:06;2.30;37.20
2623;DHT22;1321;48.690;9.022;2023-03-01T04:25:46;2.30;37.40
2623;DHT22;1321;48.690;9.022;2023-03-01T04:28:16;2.30;38.60
2623;DHT22;1321;48.690;9.022;2023-03-01T04:30:45;2.30;38.50
2623;DHT22;1321;48.690;9.022;2023-03-01T04:33:13;2.30;38.00
2623;DHT22;1321;48.690;9.022;2023-03-01T04:35:42;2.30;38.20
2623;DHT22;1321;48.690;9.022;2023-03-01T04:38:10;2.30;39.40
2623;DHT22;1321;48.690;9.022;2023-03-01T04:40:38;2.40;40.00
2623;DHT22;1321;48.690;9.022;2023-03-01T04:43:09;2.30;39.80
2623;DHT22;1321;48.690;9.022;2023-03-01T04:45:37;2.40;41.40
2623;DHT22;1321;48.690;9.022;2023-03-01T04:48:07;2.40;39.90
2623;DHT22;1321;48.690;9.022;2023-03-01T04:50:36;2.30;39.00
2623;DHT22;1321;48.690;9.022;2023-03-01T04:53:04;2.40;40.20
2623;DHT22;1321;48.690;9.022;2023-03-01T04:55:33;2.40;41.50
2623;DHT22;1321;48.690;9.022;2023-03-01T04:58:01;2.40;40.60
2623;DHT22;1321;48.690;9.022;2023-03-01T05:00:30;2.40;41.00
2623;DHT22;1321;48.690;9.022;2023-03-01T05:03:00;2.40;41.20
2623;DHT22;1321;48.690;9.022;2023-03-01T05:05:32;2.40;41.20
2623;DHT22;1321;48.690;9.022;2023-03-01T05:08:03;2.50;41.50
2623;DHT22;1321;48.690;9.022;2023-03-01T05:10:33;2.50;42.80
2623;DHT22;1321;48.690;9.022;2023-03-01T05:13:03;2.50;42.10
2623;DHT22;1321;48.690;9.022;2023-03-01T05:15:31;2.40;42.20
2623;DHT22;1321;48.690;9.022;2023-03-01T05:18:00;2.40;41.60
2623;DHT22;1321;48.690;9.022;2023-03-01T05:20:30;2.50;43.00
2623;DHT22;1321;48.690;9.022;2023-03-01T05:22:59;2.40;42.40
2623;DHT22;1321;48.690;9.022;2023-03-01T05:25:33;2.40;42.20
2623;DHT22;1321;48.690;9.022;2023-03-01T05:28:10;2.40;44.10
2623;DHT22;1321;48.690;9.022;2023-03-01T05:30:39;2.40;43.80
2623;DHT22;1321;48.690;9.022;2023-03-01T05:33:08;2.40;44.90
2623;DHT22;1321;48.690;9.022;2023-03-01T05:35:42;2.50;44.00
2623;DHT22;1321;48.690;9.022;2023-03-01T05:38:12;2.40;43.30
2623;DHT22;1321;48.690;9.022;2023-03-01T05:40:41;2.40;43.30
2623;DHT22;1321;48.690;9.022;2023-03-01T05:43:11;2.50;45.50
2623;DHT22;1321;48.690;9.022;2023-03-01T05:45:40;2.40;44.50
2623;DHT22;1321;48.690;9.022;2023-03-01T05:48:10;2.40;45.00
2623;DHT22;1321;48.690;9.022;2023-03-01T05:50:42;2.30;45.80
2623;DHT22;1321;48.690;9.022;2023-03-01T05:53:12;2.50;48.80
2623;DHT22;1321;48.690;9.022;2023-03-01T05:55:42;2.60;47.20
2623;DHT22;1321;48.690;9.022;2023-03-01T05:58:12;2.60;47.70
2623;DHT22;1321;48.690;9.022;2023-03-01T06:00:42;2.60;47.00
2623;DHT22;1321;48.690;9.022;2023-03-01T06:03:12;2.60;47.30
2623;DHT22;1321;48.690;9.022;2023-03-01T06:05:42;2.60;48.30
2623;DHT22;1321;48.690;9.022;2023-03-01T06:08:11;2.60;46.90
2623;DHT22;1321;48.690;9.022;2023-03-01T06:10:39;2.60;47.20
2623;DHT22;1321;48.690;9.022;2023-03-01T06:13:08;2.60;49.20
2623;DHT22;1321;48.690;9.022;2023-03-01T06:15:36;2.60;49.50
2623;DHT22;1321;48.690;9.022;2023-03-01T06:18:04;2.60;48.10
2623;DHT22;1321;48.690;9.022;2023-03-01T06:20:32;2.60;50.10
2623;DHT22;1321;48.690;9.022;2023-03-01T06:23:02;2.60;50.20
2623;DHT22;1321;48.690;9.022;2023-03-01T06:25:30;2.50;50.60
2623;DHT22;1321;48.690;9.022;2023-03-01T06:27:59;2.60;52.00
2623;DHT22;1321;48.690;9.022;2023-03-01T06:30:27;2.70;52.20
2623;DHT22;1321;48.690;9.022;2023-03-01T06:32:56;2.70;50.50
2623;DHT22;1321;48.690;9.022;2023-03-01T06:35:28;2.80;52.00
2623;DHT22;1321;48.690;9.022;2023-03-01T06:37:58;2.80;51.30
2623;DHT22;1321;48.690;9.022;2023-03-01T06:40:29;2.80;52.60
2623;DHT22;1321;48.690;9.022;2023-03-01T06:42:58;2.80;52.80
2623;DHT22;1321;48.690;9.022;2023-03-01T06:45:27;2.80;54.10
2623;DHT22;1321;48.690;9.022;2023-03-01T06:48:02;2.80;52.80
2623;DHT22;1321;48.690;9.022;2023-03-01T06:50:31;2.80;53.30
2623;DHT22;1321;48.690;9.022;2023-03-01T06:53:00;2.90;54.40
2623;DHT22;1321;48.690;9.022;2023-03-01T06:55:29;2.90;53.60
2623;DHT22;1321;48.690;9.022;2023-03-01T06:57:58;2.90;53.70
2623;DHT22;1321;48.690;9.022;2023-03-01T07:00:27;2.90;53.40
2623;DHT22;1321;48.690;9.022;2023-03-01T07:02:59;2.90;52.10
2623;DHT22;1321;48.690;9.022;2023-03-01T07:05:29;3.00;52.50
2623;DHT22;1321;48.690;9.022;2023-03-01T07:07:57;3.00;52.20
2623;DHT22;1321;48.690;9.022;2023-03-01T07:10:26;3.10;52.10
2623;DHT22;1321;48.690;9.022;2023-03-01T07:12:56;3.10;51.70
2623;DHT22;1321;48.690;9.022;2023-03-01T07:15:25;3.10;51.00
2623;DHT22;1321;48.690;9.022;2023-03-01T07:17:54;3.10;49.40
2623;DHT22;1321;48.690;9.022;2023-03-01T07:20:22;3.20;50.50
2623;DHT22;1321;48.690;9.022;2023-03-01T07:22:52;3.20;50.80
2623;DHT22;1321;48.690;9.022;2023-03-01T07:25:21;3.20;50.00
2623;DHT22;1321;48.690;9.022;2023-03-01T07:27:50;3.30;66.20
2623;DHT22;1321;48.690;9.022;2023-03-01T07:30:21;3.30;51.10
2623;DHT22;1321;48.690;9.022;2023-03-01T07:32:49;3.30;51.20
2623;DHT22;1321;48.690;9.022;2023-03-01T07:35:21;3.40;49.20
2623;DHT22;1321;48.690;9.022;2023-03-01T07:37:49;3.30;48.00
2623;DHT22;1321;48.690;9.022;2023-03-01T07:40:17;3.30;49.60
2623;DHT22;1321;48.690;9.022;2023-03-01T07:42:46;3.50;51.30
2623;DHT22;1321;48.690;9.022;2023-03-01T07:45:14;3.60;54.40
2623;DHT22;1321;48.690;9.022;2023-03-01T07:47:43;3.70;53.60
2623;DHT22;1321;48.690;9.022;2023-03-01T07:50:12;3.80;52.30
2623;DHT22;1321;48.690;9.022;2023-03-01T07:52:40;4.00;53.00
2623;DHT22;1321;48.690;9.022;2023-03-01T07:55:08;4.20;54.80
2623;DHT22;1321;48.690;9.022;2023-03-01T07:57:37;4.40;52.60
2623;DHT22;1321;48.690;9.022;2023-03-01T08:00:06;4.60;52.40
2623;DHT22;1321;48.690;9.022;2023-03-01T08:02:35;4.80;51.00
2623;DHT22;1321;48.690;9.022;2023-03-01T08:05:05;5.20;52.50
2623;DHT22;1321;48.690;9.022;2023-03-01T08:07:33;5.40;48.80
2623;DHT22;1321;48.690;9.022;2023-03-01T08:10:01;5.70;51.30
2623;DHT22;1321;48.690;9.022;2023-03-01T08:12:29;6.10;52.70
2623;DHT22;1321;48.690;9.022;2023-03-01T08:14:58;6.30;49.70
2623;DHT22;1321;48.690;9.022;2023-03-01T08:17:26;6.70;51.60
2623;DHT22;1321;48.690;9.022;2023-03-01T08:19:54;7.00;50.00
2623;DHT22;1321;48.690;9.022;2023-03-01T08:22:24;7.30;48.50
2623;DHT22;1321;48.690;9.022;2023-03-01T08:24:52;7.40;44.10
2623;DHT22;1321;48.690;9.022;2023-03-01T08:27:22;7.60;44.70
2623;DHT22;1321;48.690;9.022;2023-03-01T08:29:51;7.70;40.10
2623;DHT22;1321;48.690;9.022;2023-03-01T08:32:19;7.90;42.60
2623;DHT22;1321;48.690;9.022;2023-03-01T08:34:48;8.30;43.20
2623;DHT22;1321;48.690;9.022;2023-03-01T08:37:16;8.50;42.50
2623;DHT22;1321;48.690;9.022;2023-03-01T08:39:46;8.80;41.70
2623;DHT22;1321;48.690;9.022;2023-03-01T08:42:14;9.20;43.60
2623;DHT22;1321;48.690;9.022;2023-03-01T08:44:42;9.60;45.10
2623;DHT22;1321;48.690;9.022;2023-03-01T08:47:12;9.90;58.30
2623;DHT22;1321;48.690;9.022;2023-03-01T08:49:41;10.10;44.40
2623;DHT22;1321;48.690;9.022;2023-03-01T08:52:09;10.20;39.80
2623;DHT22;1321;48.690;9.022;2023-03-01T08:54:38;10.10;37.10
2623;DHT22;1321;48.690;9.022;2023-03-01T08:57:07;10.60;40.40
2623;DHT22;1321;48.690;9.022;2023-03-01T08:59:36;11.00;42.60
2623;DHT22;1321;48.690;9.022;2023-03-01T09:02:05;11.40;45.50
2623;DHT22;1321;48.690;9.022;2023-03-01T09:04:33;11.40;41.20
2623;DHT22;1321;48.690;9.022;2023-03-01T09:07:01;12.00;44.40
2623;DHT22;1321;48.690;9.022;2023-03-01T09:09:30;12.30;45.60
2623;DHT22;1321;48.690;9.022;2023-03-01T09:11:58;12.30;43.10
2623;DHT22;1321;48.690;9.022;2023-03-01T09:14:27;12.40;41.70
2623;DHT22;1321;48.690;9.022;2023-03-01T09:16:56;12.20;38.10
2623;DHT22;1321;48.690;9.022;2023-03-01T09:19:24;12.70;43.40
2623;DHT22;1321;48.690;9.022;2023-03-01T09:21:53;13.10;46.40
2623;DHT22;1321;48.690;9.022;2023-03-01T09:24:23;13.70;51.90
2623;DHT22;1321;48.690;9.022;2023-03-01T09:26:55;14.30;55.30
2623;DHT22;1321;48.690;9.022;2023-03-01T09:29:24;14.10;49.10
2623;DHT22;1321;48.690;9.022;2023-03-01T09:31:54;14.80;54.70
2623;DHT22;1321;48.690;9.022;2023-03-01T09:34:23;15.50;60.80
2623;DHT22;1321;48.690;9.022;2023-03-01T09:36:51;16.20;68.10
2623;DHT22;1321;48.690;9.022;2023-03-01T09:39:20;16.00;62.10
2623;DHT22;1321;48.690;9.022;2023-03-01T09:41:52;15.80;56.50
2623;DHT22;1321;48.690;9.022;2023-03-01T09:44:36;16.10;60.20
2623;DHT22;1321;48.690;9.022;2023-03-01T09:47:09;17.10;71.50
2623;DHT22;1321;48.690;9.022;2023-03-01T09:49:41;17.10;70.00
2623;DHT22;1321;48.690;9.022;2023-03-01T09:52:23;17.30;70.70
2623;DHT22;1321;48.690;9.022;2023-03-01T09:54:55;17.70;75.60
2623;DHT22;1321;48.690;9.022;2023-03-01T09:57:30;18.10;78.30
2623;DHT22;1321;48.690;9.022;2023-03-01T10:00:16;18.60;85.20
2623;DHT22;1321;48.690;9.022;2023-03-01T10:02:52;18.60;82.70
2623;DHT22;1321;48.690;9.022;2023-03-01T10:05:38;18.30;77.10
2623;DHT22;1321;48.690;9.022;2023-03-01T10:08:26;18.00;73.20
2623;DHT22;1321;48.690;9.022;2023-03-01T10:10:56;16.80;72.40
2623;DHT22;1321;48.690;9.022;2023-03-01T10:13:29;16.90;56.10
2623;DHT22;1321;48.690;9.022;2023-03-01T10:16:03;17.00;57.80
2623;DHT22;1321;48.690;9.022;2023-03-01T10:18:35;17.10;60.30
2623;DHT22;1321;48.690;9.022;2023-03-01T10:21:13;17.30;60.80
2623;DHT22;1321;48.690;9.022;2023-03-01T10:23:42;17.60;64.70
2623;DHT22;1321;48.690;9.022;2023-03-01T10:26:33;17.90;68.80
2623;DHT22;1321;48.690;9.022;2023-03-01T10:29:07;18.40;74.10
2623;DHT22;1321;48.690;9.022;2023-03-01T10:31:41;19.30;86.70
2623;DHT22;1321;48.690;9.022;2023-03-01T10:34:14;19.90;92.30
2623;DHT22;1321;48.690;9.022;2023-03-01T10:36:44;20.30;94.60
2623;DHT22;1321;48.690;9.022;2023-03-01T10:39:17;19.50;85.20
2623;DHT22;1321;48.690;9.022;2023-03-01T10:41:54;20.50;93.00
2623;DHT22;1321;48.690;9.022;2023-03-01T10:44:43;21.60;99.90
2623;DHT22;1321;48.690;9.022;2023-03-01T10:47:20;21.80;99.90
2623;DHT22;1321;48.690;9.022;2023-03-01T10:49:58;21.30;98.70
2623;DHT22;1321;48.690;9.022;2023-03-01T10:52:30;22.40;99.90
2623;DHT22;1321;48.690;9.022;2023-03-01T10:55:01;23.60;99.90
2623;DHT22;1321;48.690;9.022;2023-03-01T10:57:35;24.60;99.90
2623;DHT22;1321;48.690;9.022;2023-03-01T11:00:17;24.00;99.90
2623;DHT22;1321;48.690;9.022;2023-03-01T11:02:48;24.20;99.90
2623;DHT22;1321;48.690;9.022;2023-03-01T11:05:21;25.50;99.90
2623;DHT22;1321;48.690;9.022;2023-03-01T11:07:52;24.50;99.90
2623;DHT22;1321;48.690;9.022;2023-03-01T11:10:23;24.90;99.90
2623;DHT22;1321;48.690;9.022;2023-03-01T11:12:52;25.60;99.90
2623;DHT22;1321;48.690;9.022;2023-03-01T11:15:26;25.90;99.90
2623;DHT22;1321;48.690;9.022;2023-03-01T11:17:56;26.40;99.90
2623;DHT22;1321;48.690;9.022;2023-03-01T11:20:41;26.30;99.90
2623;DHT22;1321;48.690;9.022;2023-03-01T11:23:12;26.70;99.90
2623;DHT22;1321;48.690;9.022;2023-03-01T11:25:44;25.80;99.90
2623;DHT22;1321;48.690;9.022;2023-03-01T11:28:15;26.10;99.90
2623;DHT22;1321;48.690;9.022;2023-03-01T11:30:49;26.40;99.90
2623;DHT22;1321;48.690;9.022;2023-03-01T11:33:37;25.50;99.90
2623;DHT22;1321;48.690;9.022;2023-03-01T11:36:16;26.00;99.90
2623;DHT22;1321;48.690;9.022;2023-03-01T11:38:44;25.50;99.90
2623;DHT22;1321;48.690;9.022;2023-03-01T11:41:15;22.60;98.80
2623;DHT22;1321;48.690;9.022;2023-03-01T11:43:50;20.20;69.80
2623;DHT22;1321;48.690;9.022;2023-03-01T11:46:46;18.40;45.60
2623;DHT22;1321;48.690;9.022;2023-03-01T11:52:22;16.30;24.20
2623;DHT22;1321;48.690;9.022;2023-03-01T11:55:04;15.90;21.30
2623;DHT22;1321;48.690;9.022;2023-03-01T11:57:46;15.30;16.30
2623;DHT22;1321;48.690;9.022;2023-03-01T12:00:30;15.00;14.10
2623;DHT22;1321;48.690;9.022;2023-03-01T12:03:22;14.50;10.60
2623;DHT22;1321;48.690;9.022;2023-03-01T12:06:24;14.40;8.80
2623;DHT22;1321;48.690;9.022;2023-03-01T12:09:11;14.30;9.10
2623;DHT22;1321;48.690;9.022;2023-03-01T12:11:58;14.00;6.80
2623;DHT22;1321;48.690;9.022;2023-03-01T12:14:44;14.00;6.50
2623;DHT22;1321;48.690;9.022;2023-03-01T12:17:32;13.90;5.60
2623;DHT22;1321;48.690;9.022;2023-03-01T12:20:20;13.80;5.50
2623;DHT22;1321;48.690;9.022;2023-03-01T12:23:09;13.80;6.50
2623;DHT22;1321;48.690;9.022;2023-03-01T12:25:52;13.80;6.00
2623;DHT22;1321;48.690;9.022;2023-03-01T12:28:33;13.90;7.70
2623;DHT22;1321;48.690;9.022;2023-03-01T12:31:20;13.80;6.10
2623;DHT22;1321;48.690;9.022;2023-03-01T12:33:58;13.70;5.90
2623;DHT22;1321;48.690;9.022;2023-03-01T12:39:39;13.80;6.30
2623;DHT22;1321;48.690;9.022;2023-03-01T12:42:18;13.40;3.00
2623;DHT22;1321;48.690;9.022;2023-03-01T12:45:01;13.30;3.10
2623;DHT22;1321;48.690;9.022;2023-03-01T12:47:54;13.30;2.50
2623;DHT22;1321;48.690;9.022;2023-03-01T12:50:33;13.50;4.60
2623;DHT22;1321;48.690;9.022;2023-03-01T12:53:04;13.50;5.60
2623;DHT22;1321;48.690;9.022;2023-03-01T12:55:35;13.50;5.50
2623;DHT22;1321;48.690;9.022;2023-03-01T12:58:15;13.50;6.20
2623;DHT22;1321;48.690;9.022;2023-03-01T13:00:59;13.60;6.40
2623;DHT22;1321;48.690;9.022;2023-03-01T13:03:36;13.60;6.50
2623;DHT22;1321;48.690;9.022;2023-03-01T13:06:10;13.60;6.90
2623;DHT22;1321;48.690;9.022;2023-03-01T13:08:44;13.50;6.00
2623;DHT22;1321;48.690;9.022;2023-03-01T13:11:18;13.50;5.50
2623;DHT22;1321;48.690;9.022;2023-03-01T13:13:49;13.40;5.50
2623;DHT22;1321;48.690;9.022;2023-03-01T13:16:39;13.40;5.70
2623;DHT22;1321;48.690;9.022;2023-03-01T13:19:13;13.40;6.40
2623;DHT22;1321;48.690;9.022;2023-03-01T13:21:43;13.40;5.50
2623;DHT22;1321;48.690;9.022;2023-03-01T13:24:25;13.40;5.90
2623;DHT22;1321;48.690;9.022;2023-03-01T13:27:11;13.50;6.50
2623;DHT22;1321;48.690;9.022;2023-03-01T13:29:47;13.50;7.00
2623;DHT22;1321;48.690;9.022;2023-03-01T13:32:23;13.50;6.80
2623;DHT22;1321;48.690;9.022;2023-03-01T13:38:38;13.10;4.30
2623;DHT22;1321;48.690;9.022;2023-03-01T13:41:08;12.90;1.90
2623;DHT22;1321;48.690;9.022;2023-03-01T13:43:38;12.80;1.10
2623;DHT22;1321;48.690;9.022;2023-03-01T13:46:15;12.90;2.10
2623;DHT22;1321;48.690;9.022;2023-03-01T13:48:47;12.90;2.30
2623;DHT22;1321;48.690;9.022;2023-03-01T13:51:22;13.00;1.90
2623;DHT22;1321;48.690;9.022;2023-03-01T13:53:52;12.90;2.10
2623;DHT22;1321;48.690;9.022;2023-03-01T13:56:24;12.90;1.30
2623;DHT22;1321;48.690;9.022;2023-03-01T13:58:55;12.80;1.50
2623;DHT22;1321;48.690;9.022;2023-03-01T14:01:31;12.90;3.80
2623;DHT22;1321;48.690;9.022;2023-03-01T14:04:02;13.00;4.20
2623;DHT22;1321;48.690;9.022;2023-03-01T14:06:34;13.00;4.30
2623;DHT22;1321;48.690;9.022;2023-03-01T14:09:05;13.10;5.00
2623;DHT22;1321;48.690;9.022;2023-03-01T14:12:04;13.00;13.50
2623;DHT22;1321;48.690;9.022;2023-03-01T14:14:44;13.00;4.90
2623;DHT22;1321;48.690;9.022;2023-03-01T14:17:40;13.10;5.40
2623;DHT22;1321;48.690;9.022;2023-03-01T14:20:14;13.10;5.30
2623;DHT22;1321;48.690;9.022;2023-03-01T14:22:44;13.10;5.10
2623;DHT22;1321;48.690;9.022;2023-03-01T14:25:20;12.90;4.00
2623;DHT22;1321;48.690;9.022;2023-03-01T14:27:55;12.80;3.10
2623;DHT22;1321;48.690;9.022;2023-03-01T14:30:27;12.80;3.30
2623;DHT22;1321;48.690;9.022;2023-03-01T14:33:02;12.80;3.70
2623;DHT22;1321;48.690;9.022;2023-03-01T14:35:31;12.70;2.50
2623;DHT22;1321;48.690;9.022;2023-03-01T14:38:01;12.50;1.00
2623;DHT22;1321;48.690;9.022;2023-03-01T14:40:31;12.50;1.00
2623;DHT22;1321;48.690;9.022;2023-03-01T14:43:01;12.40;1.00
2623;DHT22;1321;48.690;9.022;2023-03-01T14:45:30;12.40;1.00
2623;DHT22;1321;48.690;9.022;2023-03-01T14:48:01;12.40;1.00
2623;DHT22;1321;48.690;9.022;2023-03-01T14:50:31;12.30;1.00
2623;DHT22;1321;48.690;9.022;2023-03-01T14:53:02;12.20;1.00
2623;DHT22;1321;48.690;9.022;2023-03-01T14:55:34;12.10;1.00
2623;DHT22;1321;48.690;9.022;2023-03-01T14:58:04;12.10;1.00
2623;DHT22;1321;48.690;9.022;2023-03-01T15:00:33;12.00;1.00
2623;DHT22;1321;48.690;9.022;2023-03-01T15:03:07;12.00;1.00
2623;DHT22;1321;48.690;9.022;2023-03-01T15:05:41;11.90;1.00
2623;DHT22;1321;48.690;9.022;2023-03-01T15:08:16;12.00;1.00
2623;DHT22;1321;48.690;9.022;2023-03-01T15:10:57;11.90;1.00
2623;DHT22;1321;48.690;9.022;2023-03-01T15:13:30;11.80;1.00
2623;DHT22;1321;48.690;9.022;2023-03-01T15:16:04;11.60;1.00
2623;DHT22;1321;48.690;9.022;2023-03-01T15:18:35;11.60;1.00
2623;DHT22;1321;48.690;9.022;2023-03-01T15:21:09;11.60;1.00
2623;DHT22;1321;48.690;9.022;2023-03-01T15:23:38;11.50;1.00
2623;DHT22;1321;48.690;9.022;2023-03-01T15:26:22;11.50;1.00
2623;DHT22;1321;48.690;9.022;2023-03-01T15:28:53;11.50;1.00
2623;DHT22;1321;48.690;9.022;2023-03-01T15:31:26;11.50;1.00
2623;DHT22;1321;48.690;9.022;2023-03-01T15:34:10;11.50;1.00
2623;DHT22;1321;48.690;9.022;2023-03-01T15:36:43;11.50;1.00
2623;DHT22;1321;48.690;9.022;2023-03-01T15:39:31;11.40;1.00
2623;DHT22;1321;48.690;9.022;2023-03-01T15:42:06;11.30;1.00
2623;DHT22;1321;48.690;9.022;2023-03-01T15:44:36;11.20;1.00
2623;DHT22;1321;48.690;9.022;2023-03-01T15:47:26;11.20;1.00
2623;DHT22;1321;48.690;9.022;2023-03-01T15:49:58;11.20;1.00
2623;DHT22;1321;48.690;9.022;2023-03-01T15:52:29;11.10;1.00
2623;DHT22;1321;48.690;9.022;2023-03-01T15:55:04;11.00;1.00
2623;DHT22;1321;48.690;9.022;2023-03-01T15:57:33;11.00;1.00
2623;DHT22;1321;48.690;9.022;2023-03-01T16:00:01;11.00;1.00
2623;DHT22;1321;48.690;9.022;2023-03-01T16:02:38;10.90;1.00
2623;DHT22;1321;48.690;9.022;2023-03-01T16:05:17;10.90;1.00
2623;DHT22;1321;48.690;9.022;2023-03-01T16:07:46;10.80;1.00
2623;DHT22;1321;48.690;9.022;2023-03-01T16:10:14;10.80;1.00
2623;DHT22;1321;48.690;9.022;2023-03-01T16:12:42;10.70;1.00
2623;DHT22;1321;48.690;9.022;2023-03-01T16:15:16;10.60;1.00
2623;DHT22;1321;48.690;9.022;2023-03-01T16:17:46;10.50;1.00
2623;DHT22;1321;48.690;9.022;2023-03-01T16:20:16;10.40;1.00
2623;DHT22;1321;48.690;9.022;2023-03-01T16:22:54;10.40;1.00
2623;DHT22;1321;48.690;9.022;2023-03-01T16:25:24;10.30;1.00
2623;DHT22;1321;48.690;9.022;2023-03-01T16:27:52;10.20;1.00
2623;DHT22;1321;48.690;9.022;2023-03-01T16:30:22;10.10;1.00
2623;DHT22;1321;48.690;9.022;2023-03-01T16:32:51;10.00;1.00
2623;DHT22;1321;48.690;9.022;2023-03-01T16:35:22;9.90;1.00
2623;DHT22;1321;48.690;9.022;2023-03-01T16:37:50;9.90;1.00
2623;DHT22;1321;48.690;9.022;2023-03-01T16:40:21;9.80;1.00
2623;DHT22;1321;48.690;9.022;2023-03-01T16:42:50;9.80;1.00
2623;DHT22;1321;48.690;9.022;2023-03-01T16:45:18;9.70;1.00
2623;DHT22;1321;48.690;9.022;2023-03-01T16:47:51;9.70;1.00
2623;DHT22;1321;48.690;9.022;2023-03-01T16:50:23;9.70;1.00
2623;DHT22;1321;48.690;9.022;2023-03-01T16:52:51;9.60;1.00
2623;DHT22;1321;48.690;9.022;2023-03-01T16:55:19;9.60;1.00
2623;DHT22;1321;48.690;9.022;2023-03-01T16:57:47;9.60;1.00
2623;DHT22;1321;48.690;9.022;2023-03-01T17:00:16;9.50;1.00
2623;DHT22;1321;48.690;9.022;2023-03-01T17:02:44;9.40;1.00